createdAt,value
2017-12-02T00:02:03.779Z,24.50
2017-12-02T00:04:32.220Z,22.80
2017-12-02T00:06:59.930Z,22.47
2017-12-02T00:09:27.710Z,24.30
2017-12-02T00:11:55.340Z,24.43
2017-12-02T00:14:23.043Z,21.57
2017-12-02T00:16:50.704Z,23.03
2017-12-02T00:19:18.392Z,23.70
2017-12-02T00:21:46.910Z,22.43
2017-12-02T00:24:14.582Z,21.30
2017-12-02T00:26:42.235Z,22.47
2017-12-02T00:29:09.936Z,21.50
2017-12-02T00:31:37.627Z,21.17
2017-12-02T00:34:06.082Z,22.27
2017-12-02T00:36:33.969Z,22.67
2017-12-02T00:39:02.595Z,22.17
2017-12-02T00:41:30.323Z,24.20
2017-12-02T00:43:58.812Z,21.87
2017-12-02T00:46:27.018Z,21.90
2017-12-02T00:48:54.771Z,21.60
2017-12-02T00:51:22.470Z,23.30
2017-12-02T00:53:50.111Z,23.80
2017-12-02T00:56:17.825Z,23.27
2017-12-02T00:58:45.539Z,22.63
2017-12-02T01:01:13.198Z,22.90
2017-12-02T01:03:40.992Z,24.00
2017-12-02T01:06:09.464Z,24.47
2017-12-02T01:08:37.144Z,23.17
2017-12-02T01:11:05.668Z,23.77
2017-12-02T01:13:33.332Z,25.83
2017-12-02T01:16:01.044Z,25.43
2017-12-02T01:18:29.475Z,25.10
2017-12-02T01:20:57.202Z,24.00
2017-12-02T01:23:24.847Z,25.40
2017-12-02T01:25:53.283Z,25.47
2017-12-02T01:28:20.988Z,25.30
2017-12-02T01:30:49.584Z,25.90
2017-12-02T01:33:17.259Z,28.60
2017-12-02T01:35:44.947Z,26.87
2017-12-02T01:38:12.593Z,27.70
2017-12-02T01:40:40.241Z,26.47
2017-12-02T01:43:08.077Z,25.27
2017-12-02T01:45:36.494Z,27.33
2017-12-02T01:48:04.233Z,25.67
2017-12-02T01:50:31.903Z,28.03
2017-12-02T01:52:59.610Z,26.70
2017-12-02T01:55:27.332Z,28.33
2017-12-02T01:57:55.132Z,28.27
2017-12-02T02:00:22.871Z,27.67
2017-12-02T02:02:50.583Z,27.87
2017-12-02T02:05:19.056Z,27.50
2017-12-02T02:07:47.521Z,27.10
2017-12-02T02:10:15.201Z,30.20
2017-12-02T02:12:43.638Z,29.83
2017-12-02T02:15:11.356Z,30.33
2017-12-02T02:17:39.039Z,29.73
2017-12-02T02:20:06.747Z,31.20
2017-12-02T02:22:35.327Z,31.10
2017-12-02T02:25:03.859Z,27.50
2017-12-02T02:27:31.549Z,28.17
2017-12-02T02:29:59.218Z,28.77
2017-12-02T02:32:27.680Z,27.53
2017-12-02T02:34:55.379Z,27.77
2017-12-02T02:37:23.794Z,27.37
2017-12-02T02:39:51.440Z,28.90
2017-12-02T02:42:19.208Z,27.07
2017-12-02T02:44:46.842Z,29.77
2017-12-02T02:47:15.320Z,29.27
2017-12-02T02:49:43.756Z,28.47
2017-12-02T02:52:11.610Z,29.60
2017-12-02T02:54:39.339Z,31.13
2017-12-02T02:57:07.785Z,28.33
2017-12-02T02:59:36.344Z,28.80
2017-12-02T03:02:03.973Z,27.63
2017-12-02T03:04:31.620Z,29.13
2017-12-02T03:06:59.328Z,28.07
2017-12-02T03:09:27.028Z,27.20
2017-12-02T03:11:55.542Z,26.77
2017-12-02T03:14:23.223Z,27.07
2017-12-02T03:16:50.993Z,29.20
2017-12-02T03:19:18.761Z,26.60
2017-12-02T03:21:46.448Z,26.97
2017-12-02T03:24:14.967Z,27.33
2017-12-02T03:26:42.733Z,24.80
2017-12-02T03:29:11.190Z,25.53
2017-12-02T03:31:38.903Z,26.03
2017-12-02T03:34:07.445Z,26.13
2017-12-02T03:36:35.158Z,23.93
2017-12-02T03:39:02.962Z,24.80
2017-12-02T03:41:30.690Z,24.00
2017-12-02T03:43:58.465Z,24.67
2017-12-02T03:46:26.899Z,24.20
2017-12-02T03:48:54.629Z,24.20
2017-12-02T03:51:22.355Z,23.40
2017-12-02T03:53:50.092Z,24.83
2017-12-02T03:56:17.821Z,22.43
2017-12-02T03:58:45.552Z,24.50
2017-12-02T04:01:13.266Z,27.07
2017-12-02T04:03:40.998Z,24.90
2017-12-02T04:06:08.767Z,26.57
2017-12-02T04:08:36.519Z,25.03
2017-12-02T04:11:04.270Z,26.10
2017-12-02T04:13:32.817Z,25.33
2017-12-02T04:16:00.550Z,19.30
2017-12-02T04:18:28.367Z,18.37
2017-12-02T04:20:56.838Z,17.63
2017-12-02T04:23:24.530Z,18.03
2017-12-02T04:25:52.268Z,17.03
2017-12-02T04:28:20.759Z,16.67
2017-12-02T04:30:49.324Z,16.37
2017-12-02T04:33:17.029Z,17.30
2017-12-02T04:35:44.740Z,17.97
2017-12-02T04:38:12.484Z,19.20
2017-12-02T04:40:41.568Z,17.43
2017-12-02T04:43:09.392Z,16.30
2017-12-02T04:45:37.184Z,14.13
2017-12-02T04:48:04.960Z,14.23
2017-12-02T04:50:32.698Z,13.87
2017-12-02T04:53:00.430Z,15.17
2017-12-02T04:55:28.978Z,14.90
2017-12-02T04:57:56.712Z,13.67
2017-12-02T05:00:24.423Z,13.60
2017-12-02T05:02:52.175Z,14.10
2017-12-02T05:05:19.923Z,14.83
2017-12-02T05:07:47.747Z,14.07
2017-12-02T05:10:15.459Z,14.83
2017-12-02T05:12:43.240Z,15.40
2017-12-02T05:15:11.768Z,16.33
2017-12-02T05:17:39.522Z,14.90
2017-12-02T05:20:07.287Z,16.73
2017-12-02T05:22:35.001Z,16.90
2017-12-02T05:25:03.594Z,15.83
2017-12-02T05:27:32.084Z,16.63
2017-12-02T05:30:00.618Z,16.90
2017-12-02T05:32:28.331Z,15.30
2017-12-02T05:34:56.202Z,13.90
2017-12-02T05:37:23.956Z,16.27
2017-12-02T05:39:51.728Z,15.63
2017-12-02T05:42:19.423Z,14.30
2017-12-02T05:44:47.216Z,15.77
2017-12-02T05:47:15.067Z,15.57
2017-12-02T05:49:42.798Z,16.60
2017-12-02T05:52:10.633Z,17.67
2017-12-02T05:54:38.329Z,16.70
2017-12-02T05:57:06.059Z,16.73
2017-12-02T05:59:33.775Z,17.30
2017-12-02T06:02:02.803Z,17.40
2017-12-02T06:04:30.599Z,17.63
2017-12-02T06:06:58.360Z,17.33
2017-12-02T06:09:26.065Z,18.80
2017-12-02T06:11:53.803Z,16.80
2017-12-02T06:14:21.540Z,15.90
2017-12-02T06:16:49.255Z,18.20
2017-12-02T06:19:16.996Z,18.20
2017-12-02T06:21:44.732Z,16.97
2017-12-02T06:24:12.581Z,18.90
2017-12-02T06:26:40.413Z,18.20
2017-12-02T06:29:08.180Z,19.60
2017-12-02T06:31:35.918Z,17.00
2017-12-02T06:34:03.608Z,18.93
2017-12-02T06:36:32.107Z,19.30
2017-12-02T06:39:01.146Z,17.53
2017-12-02T06:41:29.039Z,18.40
2017-12-02T06:43:56.805Z,18.43
2017-12-02T06:46:25.307Z,18.03
2017-12-02T06:48:53.063Z,18.87
2017-12-02T06:51:21.566Z,18.93
2017-12-02T06:53:49.295Z,18.70
2017-12-02T06:56:17.759Z,18.53
2017-12-02T06:58:45.490Z,19.77
2017-12-02T07:01:13.215Z,18.37
2017-12-02T07:03:41.022Z,19.90
2017-12-02T07:06:08.774Z,19.70
2017-12-02T07:08:36.511Z,18.37
2017-12-02T07:11:04.295Z,21.23
2017-12-02T07:13:32.072Z,20.37
2017-12-02T07:15:59.851Z,18.47
2017-12-02T07:18:27.612Z,19.43
2017-12-02T07:20:55.367Z,19.60
2017-12-02T07:23:23.143Z,18.87
2017-12-02T07:25:51.678Z,19.30
2017-12-02T07:28:19.439Z,19.70
2017-12-02T07:30:47.168Z,19.53
2017-12-02T07:33:15.633Z,20.10
2017-12-02T07:35:44.134Z,19.97
2017-12-02T07:38:12.582Z,20.13
2017-12-02T07:40:40.321Z,20.00
2017-12-02T07:43:08.050Z,21.07
2017-12-02T07:45:35.759Z,19.67
2017-12-02T07:48:03.447Z,20.23
2017-12-02T07:50:31.960Z,20.07
2017-12-02T07:52:59.672Z,19.27
2017-12-02T07:55:27.395Z,21.17
2017-12-02T07:57:55.172Z,21.50
2017-12-02T08:00:22.907Z,22.33
2017-12-02T08:02:50.605Z,21.27
2017-12-02T08:05:18.386Z,23.13
2017-12-02T08:07:46.133Z,19.73
2017-12-02T08:10:13.811Z,23.03
2017-12-02T08:12:41.519Z,21.73
2017-12-02T08:15:09.240Z,19.90
2017-12-02T08:17:37.011Z,21.77
2017-12-02T08:20:04.716Z,21.03
2017-12-02T08:22:32.410Z,21.67
2017-12-02T08:25:01.053Z,19.93
2017-12-02T08:27:28.763Z,21.40
2017-12-02T08:29:56.527Z,22.70
2017-12-02T08:32:24.201Z,21.13
2017-12-02T08:34:52.643Z,20.67
2017-12-02T08:37:21.263Z,21.13
2017-12-02T08:39:48.946Z,22.10
2017-12-02T08:42:16.688Z,23.03
2017-12-02T08:44:45.136Z,22.57
2017-12-02T08:47:12.899Z,22.97
2017-12-02T08:49:41.198Z,21.00
2017-12-02T08:52:08.955Z,22.43
2017-12-02T08:54:38.058Z,22.47
2017-12-02T08:57:07.315Z,22.57
2017-12-02T08:59:35.051Z,23.60
2017-12-02T09:02:02.752Z,23.63
2017-12-02T09:04:30.551Z,23.80
2017-12-02T09:06:59.088Z,24.17
2017-12-02T09:09:26.835Z,22.63
2017-12-02T09:11:55.335Z,22.07
2017-12-02T09:14:23.120Z,23.83
2017-12-02T09:16:51.591Z,24.17
2017-12-02T09:19:19.348Z,23.93
2017-12-02T09:21:47.077Z,22.70
2017-12-02T09:24:14.855Z,24.47
2017-12-02T09:26:42.691Z,23.43
2017-12-02T09:29:10.400Z,22.30
2017-12-02T09:31:38.922Z,22.70
2017-12-02T09:34:06.670Z,21.83
2017-12-02T09:36:35.215Z,23.80
2017-12-02T09:39:03.041Z,24.23
2017-12-02T09:41:30.876Z,23.03
2017-12-02T09:43:58.599Z,23.10
2017-12-02T09:46:26.392Z,21.73
2017-12-02T09:48:54.945Z,20.27
2017-12-02T09:51:22.668Z,21.13
2017-12-02T09:53:51.199Z,21.63
2017-12-02T09:56:18.944Z,20.90
2017-12-02T09:58:46.910Z,21.70
2017-12-02T10:01:14.701Z,21.37
2017-12-02T10:03:43.199Z,20.93
2017-12-02T10:06:11.700Z,21.30
2017-12-02T10:08:39.410Z,22.00
2017-12-02T10:11:07.114Z,21.53
2017-12-02T10:13:34.867Z,20.47
2017-12-02T10:16:03.302Z,21.30
2017-12-02T10:18:31.031Z,22.03
2017-12-02T10:20:58.748Z,20.30
2017-12-02T10:23:26.479Z,20.23
2017-12-02T10:25:54.244Z,18.80
2017-12-02T10:28:21.978Z,19.10
2017-12-02T10:30:49.706Z,20.07
2017-12-02T10:33:18.342Z,18.30
2017-12-02T10:35:46.021Z,18.87
2017-12-02T10:38:13.773Z,18.77
2017-12-02T10:40:41.462Z,18.17
2017-12-02T10:43:09.152Z,18.73
2017-12-02T10:45:36.852Z,18.33
2017-12-02T10:48:04.767Z,18.43
2017-12-02T10:50:33.290Z,20.47
2017-12-02T10:53:00.973Z,19.10
2017-12-02T10:55:28.776Z,19.30
2017-12-02T10:57:57.807Z,19.13
2017-12-02T11:00:25.583Z,17.60
2017-12-02T11:02:53.359Z,18.10
2017-12-02T11:05:21.063Z,19.10
2017-12-02T11:07:48.759Z,21.50
2017-12-02T11:10:16.412Z,21.77
2017-12-02T11:12:44.872Z,22.20
2017-12-02T11:15:12.561Z,20.60
2017-12-02T11:17:40.195Z,21.03
2017-12-02T11:20:07.896Z,21.87
2017-12-02T11:22:35.560Z,21.50
2017-12-02T11:25:03.282Z,21.60
2017-12-02T11:27:30.950Z,20.07
2017-12-02T11:29:58.611Z,19.90
2017-12-02T11:32:26.290Z,19.03
2017-12-02T11:34:53.928Z,19.43
2017-12-02T11:37:21.634Z,19.93
2017-12-02T11:39:49.316Z,19.13
2017-12-02T11:42:17.720Z,20.60
2017-12-02T11:44:45.429Z,17.63
2017-12-02T11:47:13.095Z,16.97
2017-12-02T11:49:40.829Z,14.70
2017-12-02T11:52:08.487Z,16.40
2017-12-02T11:54:36.104Z,17.17
2017-12-02T11:57:04.522Z,14.67
2017-12-02T11:59:32.140Z,15.50
2017-12-02T12:02:00.572Z,16.50
2017-12-02T12:04:28.253Z,16.93
2017-12-02T12:06:56.679Z,21.30
2017-12-02T12:09:24.341Z,21.57
2017-12-02T12:11:51.994Z,21.23
2017-12-02T12:14:19.680Z,20.43
2017-12-02T12:16:47.340Z,19.60
2017-12-02T12:19:15.088Z,17.90
2017-12-02T12:21:42.740Z,16.37
2017-12-02T12:24:10.353Z,16.50
2017-12-02T12:26:38.819Z,16.83
2017-12-02T12:29:06.439Z,14.83
2017-12-02T12:31:34.120Z,12.40
2017-12-02T12:34:01.810Z,11.10
2017-12-02T12:36:29.436Z,11.57
2017-12-02T12:38:57.120Z,12.10
2017-12-02T12:41:24.814Z,11.73
2017-12-02T12:43:53.267Z,10.53
2017-12-02T12:46:21.074Z,11.20
2017-12-02T12:48:48.980Z,10.77
2017-12-02T12:51:16.700Z,12.70
2017-12-02T12:53:44.329Z,13.43
2017-12-02T12:56:12.031Z,14.13
2017-12-02T12:58:39.680Z,14.40
2017-12-02T13:01:07.319Z,13.13
2017-12-02T13:03:35.778Z,13.50
2017-12-02T13:06:03.415Z,13.67
2017-12-02T13:08:31.988Z,12.90
2017-12-02T13:10:59.627Z,13.90
2017-12-02T13:13:27.273Z,12.10
2017-12-02T13:15:54.926Z,13.50
2017-12-02T13:18:23.624Z,14.60
2017-12-02T13:20:51.295Z,14.67
2017-12-02T13:23:20.889Z,14.87
2017-12-02T13:25:48.568Z,14.80
2017-12-02T13:28:16.243Z,16.17
2017-12-02T13:30:43.872Z,15.60
2017-12-02T13:33:11.526Z,16.40
2017-12-02T13:35:39.166Z,15.53
2017-12-02T13:38:06.858Z,15.73
2017-12-02T13:40:34.534Z,15.27
2017-12-02T13:43:02.228Z,15.67
2017-12-02T13:45:29.977Z,14.80
2017-12-02T13:47:57.656Z,14.40
2017-12-02T13:50:25.407Z,13.53
2017-12-02T13:52:53.092Z,13.13
2017-12-02T13:55:20.778Z,12.53
2017-12-02T13:57:48.476Z,12.40
2017-12-02T14:00:16.187Z,12.40
2017-12-02T14:02:45.084Z,12.50
2017-12-02T14:05:12.823Z,12.17
2017-12-02T14:07:40.514Z,11.87
2017-12-02T14:10:12.478Z,10.60
2017-12-02T14:12:40.287Z,11.60
2017-12-02T14:15:07.934Z,11.30
2017-12-02T14:17:35.547Z,11.57
2017-12-02T14:20:03.988Z,11.83
2017-12-02T14:22:31.639Z,12.70
2017-12-02T14:24:59.300Z,13.50
2017-12-02T14:27:27.726Z,12.80
2017-12-02T14:29:56.096Z,14.47
2017-12-02T14:32:24.530Z,14.90
2017-12-02T14:34:52.162Z,13.43
2017-12-02T14:37:19.925Z,13.20
2017-12-02T14:39:47.600Z,13.20
2017-12-02T14:42:15.254Z,12.53
2017-12-02T14:44:42.993Z,12.87
2017-12-02T14:47:10.611Z,11.70
2017-12-02T14:49:38.231Z,8.77
2017-12-02T14:52:05.889Z,9.67
2017-12-02T14:54:34.128Z,8.80
2017-12-02T14:57:02.564Z,9.10
2017-12-02T14:59:30.212Z,7.27
2017-12-02T15:01:58.036Z,9.00
2017-12-02T15:04:26.000Z,8.60
2017-12-02T15:06:54.379Z,8.90
2017-12-02T15:09:22.852Z,8.97
2017-12-02T15:11:51.312Z,9.27
2017-12-02T15:14:18.998Z,8.77
2017-12-02T15:16:47.399Z,8.63
2017-12-02T15:19:15.151Z,8.97
2017-12-02T15:21:42.895Z,8.43
2017-12-02T15:24:11.418Z,9.97
2017-12-02T15:26:39.144Z,9.27
2017-12-02T15:29:07.555Z,9.67
2017-12-02T15:31:35.232Z,9.30
2017-12-02T15:34:02.883Z,9.20
2017-12-02T15:36:30.581Z,10.53
2017-12-02T15:38:58.297Z,9.90
2017-12-02T15:41:26.753Z,10.80
2017-12-02T15:43:54.433Z,11.00
2017-12-02T15:46:22.103Z,12.00
2017-12-02T15:48:49.860Z,11.17
2017-12-02T15:51:17.703Z,12.00
2017-12-02T15:53:45.462Z,12.27
2017-12-02T15:56:13.169Z,12.63
2017-12-02T15:58:41.056Z,13.50
2017-12-02T16:01:08.811Z,13.30
2017-12-02T16:03:40.006Z,13.20
2017-12-02T16:06:08.100Z,13.37
2017-12-02T16:08:35.885Z,15.10
2017-12-02T16:11:03.575Z,15.60
2017-12-02T16:13:31.387Z,14.87
2017-12-02T16:15:59.150Z,14.83
2017-12-02T16:18:26.931Z,15.10
2017-12-02T16:20:54.812Z,13.77
2017-12-02T16:23:22.610Z,13.07
2017-12-02T16:25:58.094Z,11.70
2017-12-02T16:28:26.259Z,11.60
2017-12-02T16:31:11.479Z,12.10
2017-12-02T16:33:46.890Z,13.10
2017-12-02T16:36:21.370Z,16.43
2017-12-02T16:38:50.601Z,16.73
2017-12-02T16:41:18.343Z,15.40
2017-12-02T16:43:46.037Z,21.73
2017-12-02T16:46:13.809Z,19.87
2017-12-02T16:48:41.434Z,17.67
2017-12-02T16:51:09.122Z,18.53
2017-12-02T16:53:36.833Z,18.90
2017-12-02T16:56:04.516Z,16.80
2017-12-02T16:58:32.194Z,15.17
2017-12-02T17:00:59.878Z,16.17
2017-12-02T17:03:28.431Z,16.20
2017-12-02T17:05:56.126Z,17.77
2017-12-02T17:08:24.576Z,16.50
2017-12-02T17:10:52.249Z,17.37
2017-12-02T17:13:20.683Z,15.40
2017-12-02T17:15:48.428Z,16.00
2017-12-02T17:18:16.079Z,15.47
2017-12-02T17:20:44.510Z,15.00
2017-12-02T17:23:12.172Z,16.10
2017-12-02T17:25:39.862Z,17.07
2017-12-02T17:28:07.543Z,16.53
2017-12-02T17:30:35.215Z,15.30
2017-12-02T17:33:02.902Z,15.40
2017-12-02T17:35:30.599Z,16.20
2017-12-02T17:37:58.262Z,16.60
2017-12-02T17:40:26.012Z,15.40
2017-12-02T17:42:53.691Z,15.90
2017-12-02T17:45:22.206Z,15.20
2017-12-02T17:47:49.835Z,15.73
2017-12-02T17:50:18.252Z,17.37
2017-12-02T17:52:45.971Z,16.77
2017-12-02T17:55:14.399Z,19.40
2017-12-02T17:57:42.044Z,18.67
2017-12-02T18:00:09.771Z,17.27
2017-12-02T18:02:38.175Z,18.40
2017-12-02T18:05:05.875Z,19.53
2017-12-02T18:07:33.557Z,29.63
2017-12-02T18:10:01.204Z,18.67
2017-12-02T18:12:28.829Z,14.53
2017-12-02T18:14:56.615Z,15.60
2017-12-02T18:17:24.285Z,14.30
2017-12-02T18:19:51.911Z,14.73
2017-12-02T18:22:19.607Z,15.30
2017-12-02T18:24:47.240Z,13.30
2017-12-02T18:27:14.945Z,13.90
2017-12-02T18:29:42.615Z,14.90
2017-12-02T18:32:11.019Z,13.43
2017-12-02T18:34:38.726Z,14.70
2017-12-02T18:37:07.272Z,15.00
2017-12-02T18:39:35.017Z,14.80
2017-12-02T18:42:02.645Z,14.00
2017-12-02T18:44:30.334Z,12.10
2017-12-02T18:46:57.970Z,13.00
2017-12-02T18:49:25.595Z,11.77
2017-12-02T18:51:53.269Z,15.83
2017-12-02T18:54:21.104Z,11.37
2017-12-02T18:56:49.003Z,11.93
2017-12-02T18:59:17.172Z,11.20
2017-12-02T19:01:45.057Z,11.47
2017-12-02T19:04:13.751Z,12.37
2017-12-02T19:06:42.310Z,12.60
2017-12-02T19:09:10.135Z,12.17
2017-12-02T19:11:37.809Z,16.67
2017-12-02T19:14:05.723Z,13.40
2017-12-02T19:16:34.340Z,22.57
2017-12-02T19:19:02.155Z,11.47
2017-12-02T19:21:30.202Z,14.13
2017-12-02T19:23:57.991Z,18.20
2017-12-02T19:26:25.775Z,14.37
2017-12-02T19:28:53.492Z,14.10
2017-12-02T19:31:21.337Z,16.23
2017-12-02T19:33:49.091Z,19.83
2017-12-02T19:36:16.743Z,25.80
2017-12-02T19:38:44.391Z,13.70
2017-12-02T19:41:12.082Z,18.50
2017-12-02T19:43:39.878Z,21.33
2017-12-02T19:46:07.948Z,14.13
2017-12-02T19:48:35.655Z,16.60
2017-12-02T19:51:03.492Z,18.33
2017-12-02T19:53:31.988Z,25.57
2017-12-02T19:55:59.678Z,12.80
2017-12-02T19:58:27.611Z,53.07
2017-12-02T20:00:55.504Z,75.80
2017-12-02T20:03:23.431Z,20.30
2017-12-02T20:05:51.941Z,33.00
2017-12-02T20:08:19.707Z,14.03
2017-12-02T20:10:47.611Z,12.30
2017-12-02T20:13:15.472Z,14.30
2017-12-02T20:15:43.431Z,18.33
2017-12-02T20:18:11.340Z,12.60
2017-12-02T20:20:39.899Z,14.70
2017-12-02T20:23:07.775Z,13.20
2017-12-02T20:25:36.105Z,12.60
2017-12-02T20:28:03.864Z,13.10
2017-12-02T20:30:31.714Z,16.70
2017-12-02T20:32:59.616Z,11.70
2017-12-02T20:35:27.461Z,15.07
2017-12-02T20:37:55.412Z,18.90
2017-12-02T20:40:23.278Z,25.80
2017-12-02T20:42:51.099Z,13.60
2017-12-02T20:45:19.724Z,11.70
2017-12-02T20:47:47.528Z,27.03
2017-12-02T20:50:15.315Z,12.53
2017-12-02T20:52:44.155Z,16.20
2017-12-02T20:55:11.899Z,11.37
2017-12-02T20:57:39.804Z,12.50
2017-12-02T21:00:07.657Z,9.17
2017-12-02T21:02:35.560Z,8.70
2017-12-02T21:05:04.042Z,10.00
2017-12-02T21:07:32.509Z,9.23
2017-12-02T21:10:00.276Z,9.50
2017-12-02T21:12:28.048Z,9.33
2017-12-02T21:14:56.670Z,9.77
2017-12-02T21:17:24.607Z,9.07
2017-12-02T21:19:53.103Z,9.37
2017-12-02T21:22:20.803Z,9.87
2017-12-02T21:24:48.508Z,9.23
2017-12-02T21:27:16.327Z,8.60
2017-12-02T21:29:44.150Z,9.57
2017-12-02T21:32:12.004Z,8.90
2017-12-02T21:34:39.879Z,9.03
2017-12-02T21:37:07.538Z,9.20
2017-12-02T21:39:35.276Z,9.53
2017-12-02T21:42:02.920Z,9.97
2017-12-02T21:44:30.627Z,10.07
2017-12-02T21:46:58.289Z,10.57
2017-12-02T21:49:25.947Z,10.10
2017-12-02T21:51:53.599Z,8.80
2017-12-02T21:54:21.247Z,10.00
2017-12-02T21:56:49.790Z,9.17
2017-12-02T21:59:17.409Z,8.60
2017-12-02T22:01:45.029Z,9.90
2017-12-02T22:04:13.475Z,10.30
2017-12-02T22:06:41.312Z,9.47
2017-12-02T22:09:09.484Z,10.40
2017-12-02T22:11:38.003Z,9.80
2017-12-02T22:14:05.795Z,8.63
2017-12-02T22:16:34.369Z,10.23
2017-12-02T22:19:03.966Z,9.70
2017-12-02T22:21:31.887Z,9.00
2017-12-02T22:23:59.821Z,9.60
2017-12-02T22:26:27.768Z,8.57
2017-12-02T22:28:56.529Z,8.13
2017-12-02T22:31:24.527Z,9.73
2017-12-02T22:33:53.339Z,10.33
2017-12-02T22:36:21.084Z,11.20
2017-12-02T22:38:49.731Z,10.40
2017-12-02T22:41:17.757Z,9.30
2017-12-02T22:43:45.555Z,9.63
2017-12-02T22:46:13.347Z,10.40
2017-12-02T22:48:41.631Z,9.20
2017-12-02T22:51:09.566Z,11.33
2017-12-02T22:53:37.483Z,9.40
2017-12-02T22:56:05.441Z,9.50
2017-12-02T22:58:33.432Z,10.70
2017-12-02T23:01:01.308Z,10.23
2017-12-02T23:03:29.167Z,10.87
2017-12-02T23:05:57.158Z,10.33
2017-12-02T23:08:24.947Z,12.07
2017-12-02T23:10:52.732Z,11.13
2017-12-02T23:13:21.159Z,11.83
2017-12-02T23:15:48.885Z,12.17
2017-12-02T23:18:16.675Z,12.53
2017-12-02T23:20:44.774Z,13.30
2017-12-02T23:23:12.701Z,12.77
2017-12-02T23:25:40.591Z,13.77
2017-12-02T23:28:08.473Z,13.83
2017-12-02T23:30:36.345Z,13.00
2017-12-02T23:33:04.163Z,12.37
2017-12-02T23:35:32.182Z,12.77
2017-12-02T23:38:00.843Z,12.27
2017-12-02T23:40:28.660Z,14.37
2017-12-02T23:42:56.496Z,13.10
2017-12-02T23:45:24.974Z,12.63
2017-12-02T23:47:52.756Z,13.13
2017-12-02T23:50:20.613Z,12.07
2017-12-02T23:52:50.281Z,12.27
2017-12-02T23:55:17.966Z,11.07
2017-12-02T23:57:46.620Z,10.73
